Time;durP1;ratioP1;P1;durP2;ratioP2;P2;SDS_P1;SDS_P2;PMS_P1;PMS_P2;Temp;Humidity;BMP_temperature;BMP_pressure;BME280_temperature;BME280_humidity;BME280_pressure;Samples;Min_cycle;Max_cycle;Signal;HPM_P1;HPM_P2
2020/12/01 00:02:15;;;;;;;64.80;33.40;;;;;;;;;;5054931;28;20029;-63
2020/12/01 00:04:42;;;;;;;63.22;33.25;;;;;;;;;;5055232;28;20159;-63
2020/12/01 00:07:07;;;;;;;70.70;35.30;;;;;;;;;;5055029;28;20037;-63
2020/12/01 00:09:33;;;;;;;56.90;31.77;;;;;;;;;;5054993;28;20017;-63
2020/12/01 00:11:58;;;;;;;65.40;34.05;;;;;;;;;;5054949;28;20029;-63
2020/12/01 00:14:24;;;;;;;61.00;31.95;;;;;;;;;;5054944;28;20063;-63
2020/12/01 00:16:50;;;;;;;53.65;28.45;;;;;;;;;;5054810;28;20029;-63
2020/12/01 00:19:15;;;;;;;54.03;29.60;;;;;;;;;;5055075;28;20503;-63
2020/12/01 00:21:43;;;;;;;54.00;30.38;;;;;;;;;;5054765;28;20028;-63
2020/12/01 00:24:10;;;;;;;53.95;29.10;;;;;;;;;;5053346;28;20356;-63
2020/12/01 00:26:35;;;;;;;54.72;29.95;;;;;;;;;;5054931;28;20036;-63
2020/12/01 00:29:02;;;;;;;51.70;29.52;;;;;;;;;;5054920;28;20107;-64
2020/12/01 00:31:28;;;;;;;50.80;28.33;;;;;;;;;;5054744;28;20037;-64
2020/12/01 00:33:53;;;;;;;51.60;28.65;;;;;;;;;;5054642;28;20009;-63
2020/12/01 00:36:24;;;;;;;53.40;28.05;;;;;;;;;;5054862;28;20353;-65
2020/12/01 00:38:49;;;;;;;;;;;;;;;;;;5054337;28;20036;-64
2020/12/01 00:41:15;;;;;;;48.28;27.25;;;;;;;;;;5054047;28;19904;-64
2020/12/01 00:43:40;;;;;;;49.72;27.95;;;;;;;;;;5054666;28;20017;-63
2020/12/01 00:46:06;;;;;;;61.15;33.97;;;;;;;;;;5054373;28;20009;-63
2020/12/01 00:48:31;;;;;;;51.42;30.10;;;;;;;;;;5054173;28;20037;-63
2020/12/01 00:50:57;;;;;;;50.42;28.95;;;;;;;;;;5054288;28;20033;-62
2020/12/01 00:53:23;;;;;;;52.17;28.85;;;;;;;;;;5053361;28;20086;-63
2020/12/01 00:55:49;;;;;;;58.83;32.72;;;;;;;;;;5052813;28;20839;-63
2020/12/01 00:58:15;;;;;;;65.32;35.72;;;;;;;;;;5052705;28;20041;-65
2020/12/01 01:01:01;;;;;;;64.20;34.63;;;;;;;;;;5054234;28;20072;-65
2020/12/01 01:03:27;;;;;;;56.13;31.85;;;;;;;;;;5052650;28;20029;-65
2020/12/01 01:05:52;;;;;;;51.33;29.55;;;;;;;;;;5054034;28;20020;-66
2020/12/01 01:08:18;;;;;;;47.65;27.00;;;;;;;;;;5054034;28;20037;-66
2020/12/01 01:10:43;;;;;;;54.72;29.23;;;;;;;;;;5054034;28;20028;-65
2020/12/01 01:13:09;;;;;;;48.70;27.13;;;;;;;;;;5054354;28;20071;-66
2020/12/01 01:15:34;;;;;;;47.55;27.63;;;;;;;;;;5053822;28;20024;-65
2020/12/01 01:18:01;;;;;;;49.80;28.73;;;;;;;;;;5053790;28;20512;-66
2020/12/01 01:20:27;;;;;;;48.58;27.88;;;;;;;;;;5036105;28;20021;-66
2020/12/01 01:22:54;;;;;;;50.30;27.10;;;;;;;;;;5052322;28;20178;-62
2020/12/01 01:25:20;;;;;;;51.22;28.05;;;;;;;;;;5053654;28;20071;-64
2020/12/01 01:27:46;;;;;;;51.88;28.52;;;;;;;;;;5053870;28;20029;-64
2020/12/01 01:30:13;;;;;;;52.83;28.35;;;;;;;;;;5052528;28;20415;-63
2020/12/01 01:32:38;;;;;;;52.25;26.63;;;;;;;;;;5053512;28;20029;-64
2020/12/01 01:35:04;;;;;;;49.00;27.20;;;;;;;;;;5053600;28;20013;-64
2020/12/01 01:37:29;;;;;;;47.72;26.20;;;;;;;;;;5053491;28;20052;-64
2020/12/01 01:39:55;;;;;;;47.67;25.98;;;;;;;;;;5053729;28;20021;-64
2020/12/01 01:42:21;;;;;;;46.55;26.40;;;;;;;;;;5053418;28;20036;-64
2020/12/01 01:44:46;;;;;;;47.35;26.33;;;;;;;;;;5053752;28;20013;-63
2020/12/01 01:47:26;;;;;;;47.08;26.10;;;;;;;;;;5052240;28;20033;-63
2020/12/01 01:49:58;;;;;;;49.50;27.52;;;;;;;;;;5053368;28;20063;-62
2020/12/01 01:52:27;;;;;;;49.85;28.63;;;;;;;;;;5053146;28;20029;-62
2020/12/01 01:54:54;;;;;;;52.25;28.17;;;;;;;;;;5051983;28;20070;-62
2020/12/01 01:57:19;;;;;;;49.42;28.67;;;;;;;;;;5051599;28;20056;-62
2020/12/01 01:59:47;;;;;;;98.13;52.65;;;;;;;;;;5053596;28;20029;-62
2020/12/01 02:02:13;;;;;;;65.60;36.85;;;;;;;;;;5053007;28;20491;-62
2020/12/01 02:04:38;;;;;;;74.82;41.92;;;;;;;;;;5053317;28;20017;-62
2020/12/01 02:07:05;;;;;;;62.55;35.83;;;;;;;;;;5053328;28;20035;-64
2020/12/01 02:09:33;;;;;;;66.90;39.17;;;;;;;;;;5053229;28;20356;-63
2020/12/01 02:12:01;;;;;;;65.72;38.25;;;;;;;;;;5052917;28;20032;-62
2020/12/01 02:14:26;;;;;;;48.50;28.92;;;;;;;;;;5052711;28;20040;-63
2020/12/01 02:16:53;;;;;;;42.97;25.58;;;;;;;;;;5053495;28;20033;-63
2020/12/01 02:19:24;;;;;;;40.67;24.20;;;;;;;;;;5051994;28;20021;-64
2020/12/01 02:21:50;;;;;;;38.20;22.13;;;;;;;;;;5053225;28;20434;-62
2020/12/01 02:24:18;;;;;;;38.10;22.67;;;;;;;;;;5053070;28;20052;-62
2020/12/01 02:26:45;;;;;;;37.22;21.67;;;;;;;;;;5053171;28;20036;-62
2020/12/01 02:29:12;;;;;;;36.03;21.40;;;;;;;;;;5053039;28;20059;-62
2020/12/01 02:31:38;;;;;;;37.55;22.10;;;;;;;;;;5053373;28;20041;-62
2020/12/01 02:34:07;;;;;;;39.25;22.67;;;;;;;;;;5052955;28;20027;-63
2020/12/01 02:36:33;;;;;;;35.20;21.30;;;;;;;;;;5052934;28;20064;-63
2020/12/01 02:38:59;;;;;;;31.85;20.40;;;;;;;;;;5052636;28;20045;-63
2020/12/01 02:41:24;;;;;;;36.65;20.42;;;;;;;;;;5052912;28;20033;-63
2020/12/01 02:43:50;;;;;;;34.42;20.45;;;;;;;;;;5052873;28;20052;-62
2020/12/01 02:46:15;;;;;;;34.42;19.83;;;;;;;;;;5052100;28;20079;-62
2020/12/01 02:48:41;;;;;;;32.92;19.02;;;;;;;;;;5052808;28;20387;-62
2020/12/01 02:51:08;;;;;;;35.22;20.55;;;;;;;;;;5052770;28;20123;-62
2020/12/01 02:53:33;;;;;;;35.88;20.77;;;;;;;;;;5052704;28;20021;-62
2020/12/01 02:55:59;;;;;;;31.75;19.60;;;;;;;;;;5052424;28;20036;-63
2020/12/01 02:58:24;;;;;;;32.10;19.67;;;;;;;;;;5051101;28;20060;-63
2020/12/01 03:00:50;;;;;;;31.55;19.65;;;;;;;;;;5052845;28;20036;-64
2020/12/01 03:03:17;;;;;;;33.67;20.25;;;;;;;;;;5054589;28;20490;-64
2020/12/01 03:05:43;;;;;;;34.22;20.48;;;;;;;;;;5056370;28;20460;-64
2020/12/01 03:08:08;;;;;;;34.88;20.00;;;;;;;;;;5055821;28;20103;-64
2020/12/01 03:10:34;;;;;;;32.33;19.35;;;;;;;;;;5056393;28;20033;-63
2020/12/01 03:12:59;;;;;;;33.92;19.67;;;;;;;;;;5056181;28;20497;-63
2020/12/01 03:15:25;;;;;;;32.38;18.80;;;;;;;;;;5055913;28;20029;-62
2020/12/01 03:17:50;;;;;;;32.90;20.08;;;;;;;;;;5056042;28;20017;-62
2020/12/01 03:20:16;;;;;;;34.65;20.02;;;;;;;;;;5055886;28;20458;-62
2020/12/01 03:22:41;;;;;;;36.55;20.83;;;;;;;;;;5056082;28;20013;-61
2020/12/01 03:25:07;;;;;;;32.90;20.25;;;;;;;;;;5055740;28;20521;-63
2020/12/01 03:27:32;;;;;;;32.42;19.73;;;;;;;;;;5055931;28;20017;-63
2020/12/01 03:29:59;;;;;;;33.63;20.33;;;;;;;;;;5055582;28;20044;-63
2020/12/01 03:32:24;;;;;;;31.55;18.77;;;;;;;;;;5055807;28;20033;-63
2020/12/01 03:34:50;;;;;;;34.83;20.17;;;;;;;;;;5054297;28;20037;-62
2020/12/01 03:37:16;;;;;;;33.42;19.92;;;;;;;;;;5055659;28;20108;-63
2020/12/01 03:39:42;;;;;;;32.90;20.00;;;;;;;;;;5055561;28;20052;-62
2020/12/01 03:42:07;;;;;;;32.95;20.20;;;;;;;;;;5054469;28;20091;-62
2020/12/01 03:44:33;;;;;;;33.25;19.65;;;;;;;;;;5055551;28;20036;-62
2020/12/01 03:46:58;;;;;;;30.58;18.63;;;;;;;;;;5055794;28;20098;-63
2020/12/01 03:49:24;;;;;;;30.23;18.40;;;;;;;;;;5055408;28;20029;-62
2020/12/01 03:51:50;;;;;;;30.80;18.85;;;;;;;;;;5055361;28;20393;-63
2020/12/01 03:54:15;;;;;;;36.08;19.77;;;;;;;;;;5070723;28;20037;-63
2020/12/01 03:56:40;;;;;;;33.58;18.25;;;;;;;;;;5055396;28;20024;-63
2020/12/01 03:59:06;;;;;;;32.10;19.40;;;;;;;;;;5055032;28;20040;-61
2020/12/01 04:01:32;;;;;;;36.20;20.65;;;;;;;;;;5055039;28;20545;-61
2020/12/01 04:03:57;;;;;;;34.28;19.60;;;;;;;;;;5055020;28;20491;-61
2020/12/01 04:06:23;;;;;;;32.28;19.50;;;;;;;;;;5054080;28;20072;-63
2020/12/01 04:08:48;;;;;;;36.33;19.60;;;;;;;;;;5055037;28;20455;-63
2020/12/01 04:11:15;;;;;;;34.03;19.52;;;;;;;;;;5055156;28;20027;-64
2020/12/01 04:13:41;;;;;;;33.47;19.58;;;;;;;;;;5054998;28;20463;-63
2020/12/01 04:16:06;;;;;;;31.85;18.48;;;;;;;;;;5055129;28;20028;-64
2020/12/01 04:18:32;;;;;;;31.73;17.83;;;;;;;;;;5055058;28;20028;-63
2020/12/01 04:20:57;;;;;;;71.80;52.53;;;;;;;;;;5054656;28;20094;-63
2020/12/01 04:23:23;;;;;;;106.30;78.07;;;;;;;;;;5054800;28;20035;-63
2020/12/01 04:25:48;;;;;;;115.10;88.55;;;;;;;;;;5054702;28;20029;-63
2020/12/01 04:28:14;;;;;;;85.05;62.63;;;;;;;;;;5054758;28;20040;-63
2020/12/01 04:30:39;;;;;;;50.90;34.75;;;;;;;;;;5054554;28;20040;-63
2020/12/01 04:33:05;;;;;;;41.75;24.65;;;;;;;;;;5053414;28;20033;-62
2020/12/01 04:35:30;;;;;;;35.63;23.17;;;;;;;;;;5054362;28;20467;-62
2020/12/01 04:38:00;;;;;;;35.10;22.95;;;;;;;;;;5054314;28;20021;-62
2020/12/01 04:40:29;;;;;;;37.40;27.85;;;;;;;;;;5054534;28;20013;-63
2020/12/01 04:43:01;;;;;;;39.75;29.60;;;;;;;;;;5053460;28;20029;-65
2020/12/01 04:45:27;;;;;;;56.25;36.95;;;;;;;;;;5054269;28;20074;-64
2020/12/01 04:48:00;;;;;;;57.95;42.47;;;;;;;;;;5054248;28;20029;-64
2020/12/01 04:50:36;;;;;;;31.30;21.38;;;;;;;;;;5054216;28;20047;-64
2020/12/01 04:53:14;;;;;;;38.03;26.45;;;;;;;;;;5054191;28;20107;-64
2020/12/01 04:55:40;;;;;;;49.65;38.22;;;;;;;;;;5053965;28;20045;-65
2020/12/01 04:58:08;;;;;;;40.78;28.25;;;;;;;;;;5053620;28;20055;-65
2020/12/01 05:00:52;;;;;;;31.77;21.60;;;;;;;;;;5054183;28;20036;-65
2020/12/01 05:03:38;;;;;;;33.90;25.85;;;;;;;;;;5054374;28;20025;-64
2020/12/01 05:06:21;;;;;;;31.92;22.80;;;;;;;;;;5054062;28;20061;-64
2020/12/01 05:09:04;;;;;;;27.77;16.52;;;;;;;;;;5052863;28;20387;-64
2020/12/01 05:11:29;;;;;;;23.92;16.00;;;;;;;;;;5054015;28;20033;-64
2020/12/01 05:14:03;;;;;;;24.90;15.90;;;;;;;;;;5054170;28;20532;-64
2020/12/01 05:16:39;;;;;;;32.38;21.45;;;;;;;;;;5053999;28;20040;-65
2020/12/01 05:19:25;;;;;;;35.60;23.52;;;;;;;;;;5053710;28;20083;-64
2020/12/01 05:21:51;;;;;;;35.47;24.90;;;;;;;;;;5053288;28;20033;-64
2020/12/01 05:24:16;;;;;;;40.13;29.20;;;;;;;;;;5053626;28;20414;-64
2020/12/01 05:26:42;;;;;;;31.63;22.58;;;;;;;;;;5053187;28;20087;-63
2020/12/01 05:29:25;;;;;;;38.80;25.85;;;;;;;;;;5053704;28;20031;-63
2020/12/01 05:31:51;;;;;;;32.65;21.33;;;;;;;;;;5053793;28;20037;-64
2020/12/01 05:34:18;;;;;;;26.60;18.63;;;;;;;;;;5053621;28;20159;-64
2020/12/01 05:36:44;;;;;;;32.10;21.67;;;;;;;;;;5051843;28;20478;-64
2020/12/01 05:39:20;;;;;;;33.05;24.08;;;;;;;;;;5053713;28;20100;-64
2020/12/01 05:41:48;;;;;;;30.65;20.85;;;;;;;;;;5053825;28;20025;-64
2020/12/01 05:44:18;;;;;;;41.80;30.83;;;;;;;;;;5053351;28;20447;-64
2020/12/01 05:46:58;;;;;;;37.85;23.70;;;;;;;;;;5053294;28;20368;-64
2020/12/01 05:49:27;;;;;;;35.33;21.33;;;;;;;;;;5053594;28;20044;-64
2020/12/01 05:52:01;;;;;;;31.30;20.95;;;;;;;;;;5051730;28;20048;-64
2020/12/01 05:54:34;;;;;;;34.88;23.50;;;;;;;;;;5053156;28;20032;-64
2020/12/01 05:57:00;;;;;;;29.10;21.15;;;;;;;;;;5053009;28;20037;-64
2020/12/01 05:59:25;;;;;;;31.88;22.58;;;;;;;;;;5052893;28;20025;-64
2020/12/01 06:02:04;;;;;;;26.95;18.70;;;;;;;;;;5052556;28;20502;-63
2020/12/01 06:04:29;;;;;;;25.75;17.65;;;;;;;;;;5053143;28;20029;-65
2020/12/01 06:07:13;;;;;;;25.88;17.02;;;;;;;;;;5052823;28;20051;-63
2020/12/01 06:09:57;;;;;;;37.08;26.75;;;;;;;;;;5053049;28;20032;-64
2020/12/01 06:12:30;;;;;;;31.77;21.30;;;;;;;;;;5052935;28;20498;-64
2020/12/01 06:15:00;;;;;;;36.20;24.95;;;;;;;;;;5051526;28;20040;-64
2020/12/01 06:17:40;;;;;;;44.78;29.05;;;;;;;;;;5053115;28;20463;-64
2020/12/01 06:20:18;;;;;;;29.73;18.65;;;;;;;;;;5053031;28;20036;-65
2020/12/01 06:23:00;;;;;;;28.45;17.10;;;;;;;;;;5053202;28;20025;-64
2020/12/01 06:25:31;;;;;;;49.92;33.17;;;;;;;;;;5053404;28;20049;-64
2020/12/01 06:28:03;;;;;;;42.65;28.63;;;;;;;;;;5053468;28;20495;-64
2020/12/01 06:30:44;;;;;;;45.40;28.45;;;;;;;;;;5052993;28;20528;-64
2020/12/01 06:33:10;;;;;;;61.75;40.92;;;;;;;;;;5052818;28;20025;-64
2020/12/01 06:35:41;;;;;;;52.47;36.28;;;;;;;;;;5052564;28;20027;-64
2020/12/01 06:38:13;;;;;;;69.53;46.60;;;;;;;;;;5053261;28;20033;-64
2020/12/01 06:41:00;;;;;;;47.28;32.05;;;;;;;;;;5055679;28;20032;-64
2020/12/01 06:43:32;;;;;;;51.92;28.48;;;;;;;;;;5056982;28;20029;-64
2020/12/01 06:45:58;;;;;;;40.97;26.17;;;;;;;;;;5056573;28;20041;-63
2020/12/01 06:48:26;;;;;;;39.90;23.17;;;;;;;;;;5055198;28;20032;-64
2020/12/01 06:50:55;;;;;;;57.83;31.92;;;;;;;;;;5056543;28;20075;-64
2020/12/01 06:53:40;;;;;;;40.38;22.55;;;;;;;;;;5056699;28;20066;-64
2020/12/01 06:56:06;;;;;;;55.20;30.13;;;;;;;;;;5056352;28;20086;-63
2020/12/01 06:58:32;;;;;;;78.88;37.97;;;;;;;;;;5053071;28;20044;-63
2020/12/01 07:01:25;;;;;;;75.18;39.50;;;;;;;;;;5056294;28;20033;-63
2020/12/01 07:04:05;;;;;;;60.20;31.42;;;;;;;;;;5055289;28;20037;-63
2020/12/01 07:06:31;;;;;;;63.38;31.88;;;;;;;;;;5056393;28;20025;-63
2020/12/01 07:09:07;;;;;;;50.30;27.05;;;;;;;;;;5056339;28;20104;-64
2020/12/01 07:11:34;;;;;;;55.67;27.38;;;;;;;;;;5056195;28;20036;-64
2020/12/01 07:14:13;;;;;;;75.15;37.65;;;;;;;;;;5056024;28;20033;-64
2020/12/01 07:16:46;;;;;;;70.93;35.10;;;;;;;;;;5056149;28;20029;-63
2020/12/01 07:19:15;;;;;;;75.10;37.38;;;;;;;;;;5055945;28;20021;-64
2020/12/01 07:21:43;;;;;;;64.43;34.30;;;;;;;;;;5055692;28;20021;-64
2020/12/01 07:24:13;;;;;;;56.22;28.98;;;;;;;;;;5055317;28;20430;-63
2020/12/01 07:26:44;;;;;;;48.92;25.73;;;;;;;;;;5055648;28;20021;-63
2020/12/01 07:29:13;;;;;;;44.42;24.88;;;;;;;;;;5055484;28;20040;-63
2020/12/01 07:32:14;;;;;;;44.63;25.30;;;;;;;;;;5056026;28;20056;-63
2020/12/01 07:34:40;;;;;;;53.80;28.30;;;;;;;;;;5055165;28;20025;-63
2020/12/01 07:37:24;;;;;;;59.97;31.23;;;;;;;;;;5055252;28;20024;-63
2020/12/01 07:39:54;;;;;;;66.05;33.97;;;;;;;;;;5054874;28;21545;-63
2020/12/01 07:42:20;;;;;;;;;;;;;;;;;;5056015;28;20072;-63
2020/12/01 07:44:45;;;;;;;60.45;31.65;;;;;;;;;;5055929;28;19980;-63
2020/12/01 07:47:11;;;;;;;62.90;29.73;;;;;;;;;;5055423;28;20029;-63
2020/12/01 07:49:36;;;;;;;58.28;28.92;;;;;;;;;;5055282;28;20417;-63
2020/12/01 07:52:05;;;;;;;54.55;30.52;;;;;;;;;;5055591;28;20463;-63
2020/12/01 07:54:32;;;;;;;54.97;29.77;;;;;;;;;;5055126;28;20028;-63
2020/12/01 07:56:58;;;;;;;60.55;33.38;;;;;;;;;;5054790;28;20028;-63
2020/12/01 07:59:23;;;;;;;68.57;37.08;;;;;;;;;;5055323;28;20036;-63
2020/12/01 08:01:49;;;;;;;62.60;30.80;;;;;;;;;;5054941;28;20025;-63
2020/12/01 08:04:15;;;;;;;81.50;38.00;;;;;;;;;;5055393;28;20021;-63
2020/12/01 08:06:41;;;;;;;82.20;35.83;;;;;;;;;;5055260;28;20033;-63
2020/12/01 08:09:10;;;;;;;73.13;31.95;;;;;;;;;;5055121;28;20118;-62
2020/12/01 08:11:38;;;;;;;62.38;28.13;;;;;;;;;;5054969;28;20029;-62
2020/12/01 08:14:04;;;;;;;69.82;31.85;;;;;;;;;;5055127;28;20021;-62
2020/12/01 08:16:30;;;;;;;77.47;33.90;;;;;;;;;;5055050;28;20052;-63
2020/12/01 08:18:55;;;;;;;62.47;27.75;;;;;;;;;;5054772;28;20021;-63
2020/12/01 08:21:24;;;;;;;60.10;27.20;;;;;;;;;;5054747;28;20075;-63
2020/12/01 08:23:51;;;;;;;64.35;28.60;;;;;;;;;;5054868;28;20438;-63
2020/12/01 08:26:19;;;;;;;48.95;22.40;;;;;;;;;;5053513;28;20029;-63
2020/12/01 08:28:46;;;;;;;47.13;23.48;;;;;;;;;;5055023;28;20025;-63
2020/12/01 08:31:23;;;;;;;34.78;18.63;;;;;;;;;;5054742;28;20029;-63
2020/12/01 08:34:06;;;;;;;40.85;20.05;;;;;;;;;;5054406;28;20083;-63
2020/12/01 08:36:44;;;;;;;31.35;17.33;;;;;;;;;;5054255;28;20035;-63
2020/12/01 08:39:19;;;;;;;33.85;18.50;;;;;;;;;;5054487;28;20108;-63
2020/12/01 08:41:53;;;;;;;34.60;19.30;;;;;;;;;;5054433;28;20029;-63
2020/12/01 08:44:30;;;;;;;35.35;20.80;;;;;;;;;;5053448;28;20598;-63
2020/12/01 08:46:56;;;;;;;36.25;21.67;;;;;;;;;;5054405;28;20083;-63
2020/12/01 08:49:24;;;;;;;38.90;24.40;;;;;;;;;;5054139;28;20025;-63
2020/12/01 08:51:55;;;;;;;41.00;25.33;;;;;;;;;;5054476;28;20036;-63
2020/12/01 08:54:22;;;;;;;102.45;41.30;;;;;;;;;;5052836;28;20082;-63
2020/12/01 08:56:48;;;;;;;70.60;31.02;;;;;;;;;;5052720;28;20052;-63
2020/12/01 08:59:40;;;;;;;30.67;18.20;;;;;;;;;;5054049;28;20498;-63
2020/12/01 09:02:08;;;;;;;34.35;20.30;;;;;;;;;;5050429;28;20395;-63
2020/12/01 09:04:35;;;;;;;29.30;17.42;;;;;;;;;;5053150;28;20017;-64
2020/12/01 09:07:08;;;;;;;38.78;20.48;;;;;;;;;;5052783;28;20121;-63
2020/12/01 09:09:34;;;;;;;36.47;21.25;;;;;;;;;;5054001;28;20404;-63
2020/12/01 09:15:01;;;;;;;33.15;20.77;;;;;;;;;;5054069;28;20045;-66
2020/12/01 09:23:27;;;;;;;32.38;18.50;;;;;;;;;;5012288;28;20057;-66
2020/12/01 09:25:54;;;;;;;36.22;21.13;;;;;;;;;;5029857;28;20036;-66
2020/12/01 09:28:21;;;;;;;29.70;18.02;;;;;;;;;;5052338;28;20100;-66
2020/12/01 09:30:47;;;;;;;33.70;18.10;;;;;;;;;;5053959;28;20021;-65
2020/12/01 09:33:15;;;;;;;32.38;17.35;;;;;;;;;;5053554;28;20055;-66
2020/12/01 09:35:41;;;;;;;26.10;15.13;;;;;;;;;;5052343;28;20094;-66
2020/12/01 09:38:07;;;;;;;24.08;14.18;;;;;;;;;;5053699;28;20033;-66
2020/12/01 09:40:34;;;;;;;25.95;15.90;;;;;;;;;;5053451;28;20078;-66
2020/12/01 09:43:16;;;;;;;26.48;15.35;;;;;;;;;;5053291;28;20112;-65
2020/12/01 09:45:43;;;;;;;32.13;18.25;;;;;;;;;;5053428;28;20479;-66
2020/12/01 09:50:41;;;;;;;20.05;12.95;;;;;;;;;;5042503;28;20029;-66
2020/12/01 10:14:26;;;;;;;19.42;11.35;;;;;;;;;;5055655;28;20037;-65
2020/12/01 10:20:17;;;;;;;13.93;9.48;;;;;;;;;;5041325;28;20152;-71
2020/12/01 10:37:32;;;;;;;17.00;9.98;;;;;;;;;;5041333;28;20349;-71
2020/12/01 10:39:58;;;;;;;11.45;7.70;;;;;;;;;;5043228;28;20090;-71
2020/12/01 10:42:23;;;;;;;19.48;11.48;;;;;;;;;;5043089;28;20476;-71
2020/12/01 10:44:49;;;;;;;36.58;22.40;;;;;;;;;;5043088;28;20044;-71
2020/12/01 10:47:14;;;;;;;32.08;18.63;;;;;;;;;;5039651;28;20017;-71
2020/12/01 10:49:40;;;;;;;27.58;17.25;;;;;;;;;;5045184;28;20108;-71
2020/12/01 10:52:06;;;;;;;25.88;15.85;;;;;;;;;;5037030;28;20026;-71
2020/12/01 10:54:32;;;;;;;12.43;8.98;;;;;;;;;;5044676;28;20025;-71
2020/12/01 10:56:57;;;;;;;15.60;10.40;;;;;;;;;;5055521;28;20826;-71
2020/12/01 10:59:25;;;;;;;24.42;13.77;;;;;;;;;;5040508;28;20037;-71
2020/12/01 11:01:52;;;;;;;18.88;11.13;;;;;;;;;;5036357;28;20056;-71
2020/12/01 11:04:20;;;;;;;22.08;10.88;;;;;;;;;;5041958;28;20049;-71
2020/12/01 11:06:45;;;;;;;14.15;9.63;;;;;;;;;;5044952;28;20104;-71
2020/12/01 11:09:11;;;;;;;9.35;7.13;;;;;;;;;;5043258;28;20033;-71
2020/12/01 11:11:38;;;;;;;7.85;6.00;;;;;;;;;;5056539;28;20028;-70
2020/12/01 11:14:04;;;;;;;15.50;9.13;;;;;;;;;;5045430;28;20556;-70
2020/12/01 11:16:29;;;;;;;9.93;6.82;;;;;;;;;;5055959;28;20116;-70
2020/12/01 11:18:55;;;;;;;31.05;15.85;;;;;;;;;;5047398;28;20108;-70
2020/12/01 11:21:20;;;;;;;15.73;8.63;;;;;;;;;;5048150;28;20023;-70
2020/12/01 11:23:46;;;;;;;9.93;7.88;;;;;;;;;;5042855;28;20375;-70
2020/12/01 11:26:16;;;;;;;10.77;8.07;;;;;;;;;;5043550;28;20067;-70
2020/12/01 11:28:42;;;;;;;9.85;6.25;;;;;;;;;;5050517;28;20037;-70
2020/12/01 11:31:07;;;;;;;13.23;8.88;;;;;;;;;;5035881;28;20116;-70
2020/12/01 11:33:33;;;;;;;9.32;6.93;;;;;;;;;;5038573;28;20108;-70
2020/12/01 11:35:59;;;;;;;11.38;7.50;;;;;;;;;;5050839;28;20021;-70
2020/12/01 11:38:25;;;;;;;52.38;21.27;;;;;;;;;;5043479;28;20052;-70
2020/12/01 11:40:51;;;;;;;13.13;8.05;;;;;;;;;;5041865;28;20423;-65
2020/12/01 11:43:16;;;;;;;10.85;7.55;;;;;;;;;;5048153;28;20055;-65
2020/12/01 11:45:41;;;;;;;103.38;32.25;;;;;;;;;;5042237;28;20017;-65
2020/12/01 11:48:07;;;;;;;12.65;8.63;;;;;;;;;;5048893;28;20036;-65
2020/12/01 11:50:32;;;;;;;12.90;7.45;;;;;;;;;;5053445;28;20518;-65
2020/12/01 11:52:58;;;;;;;62.80;22.80;;;;;;;;;;5040342;28;20041;-65
2020/12/01 11:55:23;;;;;;;31.30;14.90;;;;;;;;;;5036587;28;20104;-65
2020/12/01 11:57:50;;;;;;;12.60;8.10;;;;;;;;;;5043199;28;20056;-65
2020/12/01 12:00:18;;;;;;;23.27;12.05;;;;;;;;;;5037117;28;20026;-65
2020/12/01 12:02:44;;;;;;;47.85;20.20;;;;;;;;;;5044042;28;20352;-65
2020/12/01 12:05:09;;;;;;;22.10;11.93;;;;;;;;;;5047537;28;20028;-65
2020/12/01 12:07:35;;;;;;;49.20;22.08;;;;;;;;;;5045607;28;20082;-65
2020/12/01 12:10:00;;;;;;;34.70;16.98;;;;;;;;;;5041349;28;20022;-65
2020/12/01 12:12:26;;;;;;;13.75;9.43;;;;;;;;;;5054754;28;20139;-65
2020/12/01 12:14:51;;;;;;;27.13;13.95;;;;;;;;;;5045845;28;20006;-65
2020/12/01 12:17:17;;;;;;;22.70;12.10;;;;;;;;;;5037285;28;20099;-65
2020/12/01 12:19:43;;;;;;;24.52;13.73;;;;;;;;;;5052255;28;20017;-65
2020/12/01 12:22:09;;;;;;;32.10;15.88;;;;;;;;;;5051078;28;20025;-65
2020/12/01 12:24:37;;;;;;;35.85;19.70;;;;;;;;;;5040413;28;20063;-65
2020/12/01 12:27:05;;;;;;;20.33;11.65;;;;;;;;;;5050835;28;20079;-66
2020/12/01 12:29:30;;;;;;;13.52;9.15;;;;;;;;;;5054657;28;20025;-66
2020/12/01 12:31:56;;;;;;;14.88;9.10;;;;;;;;;;5054665;28;20036;-65
2020/12/01 12:34:21;;;;;;;15.88;9.65;;;;;;;;;;5054029;28;20112;-66
2020/12/01 12:36:47;;;;;;;15.93;9.68;;;;;;;;;;5054033;28;20025;-65
2020/12/01 12:39:13;;;;;;;13.43;8.85;;;;;;;;;;5054124;28;20479;-66
2020/12/01 12:41:38;;;;;;;14.43;8.63;;;;;;;;;;5053035;28;20037;-66
2020/12/01 12:44:04;;;;;;;14.88;10.20;;;;;;;;;;5053052;28;20021;-65
2020/12/01 12:46:31;;;;;;;17.13;10.45;;;;;;;;;;5054256;28;20025;-66
2020/12/01 12:48:56;;;;;;;14.90;9.57;;;;;;;;;;5054744;28;20536;-66
2020/12/01 12:51:22;;;;;;;16.00;10.60;;;;;;;;;;5054398;28;20506;-66
2020/12/01 12:53:48;;;;;;;20.17;12.02;;;;;;;;;;5054239;28;20029;-65
2020/12/01 12:56:13;;;;;;;24.17;14.43;;;;;;;;;;5054048;28;20040;-65
2020/12/01 12:58:39;;;;;;;17.85;12.63;;;;;;;;;;5054039;28;20045;-65
2020/12/01 13:01:04;;;;;;;15.93;12.05;;;;;;;;;;5054422;28;20017;-65
2020/12/01 13:03:30;;;;;;;24.38;15.27;;;;;;;;;;5054081;28;20025;-66
2020/12/01 13:05:55;;;;;;;20.92;13.15;;;;;;;;;;5054383;28;20028;-66
2020/12/01 13:08:21;;;;;;;19.33;12.77;;;;;;;;;;5054315;28;20073;-70
2020/12/01 13:10:47;;;;;;;16.90;11.75;;;;;;;;;;5053886;28;20039;-71
2020/12/01 13:13:12;;;;;;;17.13;11.38;;;;;;;;;;5053878;28;20171;-70
2020/12/01 13:15:38;;;;;;;18.33;11.82;;;;;;;;;;5053737;28;20033;-70
2020/12/01 13:18:04;;;;;;;21.52;13.60;;;;;;;;;;5054008;28;20028;-65
2020/12/01 13:20:31;;;;;;;21.23;13.50;;;;;;;;;;5053746;28;20048;-66
2020/12/01 13:22:57;;;;;;;27.42;13.98;;;;;;;;;;5053650;28;20017;-65
2020/12/01 13:25:22;;;;;;;22.13;13.23;;;;;;;;;;5053529;28;20025;-65
2020/12/01 13:27:48;;;;;;;39.55;17.85;;;;;;;;;;5053570;28;20471;-66
2020/12/01 13:30:14;;;;;;;33.70;16.50;;;;;;;;;;5053825;28;20040;-66
2020/12/01 13:32:40;;;;;;;31.35;16.38;;;;;;;;;;5053598;28;20063;-65
2020/12/01 13:35:07;;;;;;;25.63;14.93;;;;;;;;;;5053660;28;20404;-65
2020/12/01 13:37:32;;;;;;;35.80;18.13;;;;;;;;;;5053493;28;20013;-65
2020/12/01 13:39:57;;;;;;;39.75;18.92;;;;;;;;;;5053621;28;20471;-65
2020/12/01 13:42:23;;;;;;;79.53;25.73;;;;;;;;;;5052307;28;20028;-65
2020/12/01 13:44:48;;;;;;;63.65;22.35;;;;;;;;;;5053224;28;20032;-65
2020/12/01 13:47:14;;;;;;;52.20;19.27;;;;;;;;;;5052983;28;20021;-65
2020/12/01 13:49:40;;;;;;;58.05;21.80;;;;;;;;;;5051941;28;20033;-66
2020/12/01 13:52:05;;;;;;;64.90;24.40;;;;;;;;;;5053365;28;20063;-65
2020/12/01 13:54:30;;;;;;;56.67;22.88;;;;;;;;;;5053333;28;20025;-65
2020/12/01 13:56:57;;;;;;;51.65;21.92;;;;;;;;;;5053026;28;20100;-66
2020/12/01 13:59:23;;;;;;;37.95;19.73;;;;;;;;;;5053337;28;20029;-66
2020/12/01 14:01:53;;;;;;;34.95;20.40;;;;;;;;;;5053135;28;20024;-66
2020/12/01 14:04:18;;;;;;;43.95;25.65;;;;;;;;;;5053374;28;20035;-66
2020/12/01 14:06:44;;;;;;;51.88;35.03;;;;;;;;;;5053256;28;20013;-66
2020/12/01 14:09:09;;;;;;;48.85;26.85;;;;;;;;;;5053319;28;20064;-65
2020/12/01 14:11:34;;;;;;;49.42;31.83;;;;;;;;;;5053405;28;20033;-66
2020/12/01 14:14:00;;;;;;;46.60;31.38;;;;;;;;;;5053262;28;20037;-66
2020/12/01 14:16:26;;;;;;;52.75;33.03;;;;;;;;;;5053154;28;20064;-66
2020/12/01 14:18:52;;;;;;;52.97;29.95;;;;;;;;;;5043051;28;20075;-66
2020/12/01 14:21:17;;;;;;;52.58;30.52;;;;;;;;;;5043011;28;20106;-66
2020/12/01 14:23:43;;;;;;;53.58;31.02;;;;;;;;;;5047922;28;20171;-67
2020/12/01 14:26:08;;;;;;;59.08;30.77;;;;;;;;;;5044690;28;20048;-65
2020/12/01 14:28:34;;;;;;;101.32;56.22;;;;;;;;;;5045788;28;20157;-65
2020/12/01 14:30:59;;;;;;;160.43;89.75;;;;;;;;;;5050429;28;20063;-65
2020/12/01 14:33:25;;;;;;;158.23;86.63;;;;;;;;;;5046236;28;20025;-65
2020/12/01 14:35:50;;;;;;;72.75;39.22;;;;;;;;;;5042924;28;20382;-66
2020/12/01 14:38:17;;;;;;;104.80;53.72;;;;;;;;;;5045514;28;20025;-66
2020/12/01 14:40:42;;;;;;;115.78;56.05;;;;;;;;;;5050881;28;20029;-66
2020/12/01 14:43:11;;;;;;;77.20;39.72;;;;;;;;;;5049905;28;20553;-66
2020/12/01 14:45:37;;;;;;;84.30;46.47;;;;;;;;;;5042718;28;20021;-66
2020/12/01 14:48:30;;;;;;;84.97;47.03;;;;;;;;;;5034905;28;20387;-66
2020/12/01 14:51:11;;;;;;;86.07;44.92;;;;;;;;;;5041679;28;20082;-66
2020/12/01 14:53:42;;;;;;;80.03;43.58;;;;;;;;;;5050918;28;20040;-66
2020/12/01 14:56:27;;;;;;;86.55;46.47;;;;;;;;;;5049593;28;20091;-64
2020/12/01 14:59:02;;;;;;;113.38;58.60;;;;;;;;;;5053355;28;20037;-65
2020/12/01 15:01:28;;;;;;;102.07;58.85;;;;;;;;;;5056074;28;20049;-65
2020/12/01 15:04:01;;;;;;;98.22;56.95;;;;;;;;;;5053948;28;20044;-65
2020/12/01 15:06:44;;;;;;;121.15;68.97;;;;;;;;;;5049236;28;20451;-64
2020/12/01 15:09:28;;;;;;;133.93;75.10;;;;;;;;;;5051359;28;20029;-61
2020/12/01 15:11:54;;;;;;;128.25;83.53;;;;;;;;;;5047872;28;20036;-63
2020/12/01 15:14:19;;;;;;;98.00;64.63;;;;;;;;;;5049138;28;20034;-62
2020/12/01 15:16:58;;;;;;;104.30;61.90;;;;;;;;;;5036488;28;20092;-62